Time;durP1;ratioP1;P1;durP2;ratioP2;P2;SDS_P1;SDS_P2;PMS_P1;PMS_P2;Temp;Humidity;BMP_temperature;BMP_pressure;BME280_temperature;BME280_humidity;BME280_pressure;Samples;Min_cycle;Max_cycle;Signal;HPM_P1;HPM_P2
2022/10/30 00:01:06;;;;;;;;;8.75;8.75;;;;;16.52;68.96;100716.84;5111170;27;45469;-92
2022/10/30 00:03:31;;;;;;;;;10.25;8.50;;;;;16.10;68.96;100642.19;5130033;27;45406;-92
2022/10/30 00:05:57;;;;;;;;;9.50;9.50;;;;;16.72;68.92;100778.28;5106893;27;45421;-91
2022/10/30 00:08:24;;;;;;;;;8.00;7.50;;;;;17.19;69.32;100845.72;5125620;27;46949;-91
2022/10/30 00:10:50;;;;;;;;;8.75;7.50;;;;;16.84;69.12;100810.69;5112302;27;44760;-92
2022/10/30 00:13:16;;;;;;;;;9.25;8.75;;;;;16.96;69.31;100816.44;5113664;27;45511;-92
2022/10/30 00:15:52;;;;;;;;;2.25;0.00;;;;;17.35;68.87;100877.09;5105295;27;45271;-91
2022/10/30 00:18:19;;;;;;;;;10.00;9.00;;;;;15.21;69.06;100529.44;5104050;27;47684;-91
2022/10/30 00:20:45;;;;;;;;;11.00;9.00;;;;;15.90;68.49;100629.69;5120519;27;45391;-91
2022/10/30 00:23:11;;;;;;;;;10.75;9.75;;;;;17.19;69.36;100867.06;5101836;27;45426;-90
2022/10/30 00:25:37;;;;;;;;;10.50;8.00;;;;;16.54;68.95;100746.13;5102631;27;45350;-91
2022/10/30 00:28:04;;;;;;;;;10.75;10.75;;;;;16.10;69.20;100688.38;5119502;27;47543;-90
2022/10/30 00:30:30;;;;;;;;;7.75;7.75;;;;;15.29;69.23;100551.31;5104991;27;45902;-90
2022/10/30 00:32:56;;;;;;;;;9.75;9.00;;;;;16.91;69.27;100818.47;5104773;27;45350;-89
2022/10/30 00:35:21;;;;;;;;;12.00;11.50;;;;;16.71;69.43;100772.09;5110189;27;45429;-90
2022/10/30 00:37:47;;;;;;;;;9.00;7.50;;;;;15.75;69.36;100618.69;5116721;27;47417;-90
2022/10/30 00:40:15;;;;;;;;;13.25;11.75;;;;;16.41;69.53;100750.25;5105378;27;45991;-90
2022/10/30 00:42:41;;;;;;;;;10.75;9.25;;;;;17.21;69.07;100875.03;5103221;27;45422;-91
2022/10/30 00:45:11;;;;;;;;;9.50;9.50;;;;;16.38;69.31;100721.88;5101816;27;45559;-90
2022/10/30 00:47:41;;;;;;;;;10.50;10.00;;;;;16.03;69.62;100662.88;5101336;27;48343;-91
2022/10/30 00:50:21;;;;;;;;;12.50;10.75;;;;;17.16;69.60;100867.22;5101943;27;45777;-90
2022/10/30 00:52:56;;;;;;;;;10.75;10.75;;;;;16.61;69.52;100784.09;5102743;27;45432;-90
2022/10/30 00:55:43;;;;;;;;;6.75;6.75;;;;;16.63;69.53;100793.78;5101250;27;45533;-91
2022/10/30 00:58:12;;;;;;;;;11.25;8.50;;;;;16.57;69.56;100782.50;5100744;27;47979;-90
2022/10/30 01:00:42;;;;;;;;;9.00;9.00;;;;;16.84;69.56;100840.03;5101290;27;45398;-90
2022/10/30 01:03:08;;;;;;;;;10.75;8.00;;;;;16.46;69.89;100789.13;5101352;27;45405;-89
2022/10/30 01:05:35;;;;;;;;;8.00;7.25;;;;;16.52;69.76;100794.22;5100770;27;45620;-90
2022/10/30 01:08:01;;;;;;;;;9.75;9.75;;;;;16.51;69.67;100797.81;5105451;27;47015;-91
2022/10/30 01:10:27;;;;;;;;;8.00;8.00;;;;;17.05;69.50;100880.16;5109408;27;45441;-91
2022/10/30 01:12:55;;;;;;;;;6.50;4.50;;;;;16.05;70.07;100726.81;5121890;27;45337;-91
2022/10/30 01:15:27;;;;;;;;;9.50;9.00;;;;;16.97;69.68;100887.59;5108787;27;45215;-91
2022/10/30 01:18:30;;;;;;;;;11.50;9.25;;;;;16.92;69.59;100889.63;5115050;27;47067;-91
2022/10/30 01:21:12;;;;;;;;;9.50;8.50;;;;;16.34;69.94;100813.66;5050669;28;45290;-91
2022/10/30 01:24:03;;;;;;;;;10.50;10.00;;;;;16.81;69.26;100888.22;5043248;28;45410;-92
2022/10/30 01:26:37;;;;;;;;;10.00;9.50;;;;;16.76;69.92;100898.22;5023635;28;45441;-93
2022/10/30 01:29:23;;;;;;;;;9.50;7.75;;;;;16.35;70.01;100831.38;5027072;28;46565;-93
2022/10/30 01:31:56;;;;;;;;;9.75;9.75;;;;;15.58;69.69;100709.09;5021996;28;45515;-92
2022/10/30 01:34:34;;;;;;;;;11.50;7.50;;;;;16.65;70.22;100895.09;5044615;28;45447;-91
2022/10/30 01:37:05;;;;;;;;;13.00;9.50;;;;;16.54;70.32;100881.34;5038291;28;45347;-91
2022/10/30 01:39:37;;;;;;;;;14.50;11.75;;;;;15.69;69.58;100745.97;5041457;28;46368;-91
2022/10/30 01:42:40;;;;;;;;;10.25;9.75;;;;;16.53;69.86;100888.44;5044949;28;45418;-91
2022/10/30 01:45:06;;;;;;;;;15.00;12.50;;;;;15.55;70.24;100722.53;5021012;28;45373;-92
2022/10/30 01:47:51;;;;;;;;;11.75;11.50;;;;;16.44;69.90;100879.03;5038673;28;44849;-93
2022/10/30 01:50:31;;;;;;;;;11.50;9.00;;;;;15.28;70.06;100704.00;5042938;28;46635;-91
2022/10/30 01:53:08;;;;;;;;;10.00;8.75;;;;;15.77;70.04;100792.72;5021338;28;45330;-93
2022/10/30 01:55:44;;;;;;;;;13.25;11.50;;;;;15.20;69.95;100700.78;5037086;28;45366;-91
2022/10/30 01:58:18;;;;;;;;;8.00;8.00;;;;;16.12;70.36;100857.16;5086228;27;45717;-92
2022/10/30 02:00:47;;;;;;;;;10.75;9.00;;;;;16.25;70.31;100876.22;5118874;27;47299;-91
2022/10/30 02:03:13;;;;;;;;;11.25;8.25;;;;;16.08;70.70;100844.88;5104736;27;45337;-92
2022/10/30 02:05:47;;;;;;;;;9.50;9.25;;;;;15.10;70.27;100678.94;5108713;27;45518;-91
2022/10/30 02:08:12;;;;;;;;;6.50;6.00;;;;;15.58;70.32;100747.25;5135593;27;45221;-91
2022/10/30 02:10:39;;;;;;;;;11.25;8.25;;;;;16.19;70.50;100868.44;5104017;27;47404;-89
2022/10/30 02:13:04;;;;;;;;;11.25;9.00;;;;;15.47;70.46;100736.13;5102706;27;45281;-93
2022/10/30 02:15:31;;;;;;;;;9.75;8.50;;;;;16.08;70.57;100860.88;5102348;27;45332;-93
2022/10/30 02:17:56;;;;;;;;;11.50;10.25;;;;;15.05;70.73;100671.13;5104518;27;45600;-92
2022/10/30 02:20:23;;;;;;;;;10.50;10.50;;;;;15.76;70.87;100792.75;5103697;27;46905;-92
2022/10/30 02:22:49;;;;;;;;;15.00;9.00;;;;;15.28;70.81;100712.00;5113611;27;45001;-92
2022/10/30 02:25:14;;;;;;;;;9.50;9.50;;;;;14.99;70.54;100670.50;5112995;27;45299;-92
2022/10/30 02:27:40;;;;;;;;;10.25;10.25;;;;;15.60;70.71;100776.50;5110423;27;45331;-92
2022/10/30 02:30:06;;;;;;;;;9.50;8.00;;;;;15.52;71.07;100776.78;5115182;27;48004;-91
2022/10/30 02:32:31;;;;;;;;;11.00;9.75;;;;;15.98;70.97;100848.81;5120445;27;44810;-91
2022/10/30 02:34:57;;;;;;;;;10.75;9.00;;;;;15.50;70.88;100773.31;5140588;27;44762;-92
2022/10/30 02:37:23;;;;;;;;;9.00;9.00;;;;;15.49;70.86;100762.69;5127782;27;45338;-92
2022/10/30 02:39:49;;;;;;;;;12.50;8.50;;;;;15.76;70.79;100800.75;5101619;27;46933;-92
2022/10/30 02:42:14;;;;;;;;;9.75;7.75;;;;;15.34;70.88;100733.06;5103591;27;45315;-93
2022/10/30 02:44:40;;;;;;;;;9.50;8.25;;;;;14.82;71.01;100650.69;5101612;27;45527;-91
2022/10/30 02:47:05;;;;;;;;;12.00;10.50;;;;;15.41;70.54;100749.66;5084806;27;45607;-91
2022/10/30 02:49:30;;;;;;;;;9.00;9.00;;;;;15.36;70.90;100738.31;5120908;27;47712;-92
2022/10/30 02:51:56;;;;;;;;;8.00;8.00;;;;;15.95;70.93;100840.94;5103888;27;45898;-93
2022/10/30 02:54:21;;;;;;;;;9.25;8.75;;;;;15.27;70.79;100720.88;5108583;27;45322;-93
2022/10/30 02:56:46;;;;;;;;;10.75;10.00;;;;;15.27;71.33;100726.22;5107801;27;45696;-92
2022/10/30 02:59:12;;;;;;;;;10.00;10.00;;;;;15.46;71.38;100756.56;5108581;27;48618;-92
2022/10/30 03:01:41;;;;;;;;;8.25;8.25;;;;;15.50;70.81;100772.44;5109216;27;45437;-92
2022/10/30 03:04:06;;;;;;;;;8.75;8.75;;;;;15.03;71.14;100675.63;5103235;27;45270;-93
2022/10/30 03:06:32;;;;;;;;;9.75;9.25;;;;;15.08;71.11;100686.97;5101668;27;45357;-92
2022/10/30 03:08:57;;;;;;;;;7.25;6.75;;;;;15.97;71.14;100836.41;5101743;27;48267;-93
2022/10/30 03:11:23;;;;;;;;;9.50;9.00;;;;;15.54;70.87;100764.25;5083819;27;44793;-93
2022/10/30 03:13:49;;;;;;;;;8.75;8.50;;;;;13.14;70.89;100388.94;5100239;27;45312;-92
2022/10/30 03:16:23;;;;;;;;;11.00;10.25;;;;;14.63;71.06;100623.84;5121209;27;45471;-92
2022/10/30 03:18:50;;;;;;;;;9.75;9.75;;;;;15.31;71.23;100740.31;5111054;27;45657;-92
2022/10/30 03:21:19;;;;;;;;;8.00;8.00;;;;;14.74;71.13;100628.78;5114550;27;44707;-92
2022/10/30 03:23:45;;;;;;;;;9.50;9.25;;;;;15.80;71.16;100813.97;5097983;27;45258;-94
2022/10/30 03:26:12;;;;;;;;;10.25;9.00;;;;;14.87;71.42;100666.47;5097138;27;45295;-92
2022/10/30 03:28:38;;;;;;;;;9.50;8.75;;;;;15.89;71.18;100838.50;5114585;27;47112;-92
2022/10/30 03:31:08;;;;;;;;;9.75;8.75;;;;;13.91;71.35;100498.78;5116967;27;45206;-93
2022/10/30 03:33:34;;;;;;;;;10.25;9.50;;;;;14.52;71.17;100597.63;5099994;27;45268;-92
2022/10/30 03:36:00;;;;;;;;;9.50;9.25;;;;;14.59;71.67;100630.19;5098104;27;45324;-93
2022/10/30 03:38:26;;;;;;;;;7.25;6.50;;;;;14.79;71.11;100657.88;5114928;27;48567;-93
2022/10/30 03:40:52;;;;;;;;;9.25;9.25;;;;;13.20;71.15;100387.03;5096936;27;45188;-93
2022/10/30 03:43:18;;;;;;;;;10.25;10.25;;;;;15.00;71.30;100694.38;5099557;27;45277;-93
2022/10/30 03:45:51;;;;;;;;;13.75;12.75;;;;;15.43;71.47;100775.31;5115816;27;45581;-93
2022/10/30 03:48:18;;;;;;;;;11.75;10.00;;;;;15.80;71.33;100803.28;5101903;27;47406;-92
2022/10/30 03:50:43;;;;;;;;;9.00;8.00;;;;;15.22;71.30;100715.75;5116168;27;44976;-93
2022/10/30 03:53:10;;;;;;;;;10.75;10.00;;;;;14.61;71.18;100615.06;5127241;27;45366;-93
2022/10/30 03:55:35;;;;;;;;;2.00;1.00;;;;;14.90;71.49;100672.53;5097107;27;45564;-93
2022/10/30 03:58:02;;;;;;;;;11.00;10.00;;;;;15.06;71.60;100712.78;5096335;27;47187;-93
2022/10/30 04:00:27;;;;;;;;;11.25;9.25;;;;;14.47;71.42;100604.91;5096744;27;45467;-92
2022/10/30 04:02:53;;;;;;;;;11.75;10.25;;;;;14.43;71.50;100600.63;5102617;27;45343;-91
2022/10/30 04:05:21;;;;;;;;;9.00;9.00;;;;;15.41;71.67;100755.88;5126396;27;44870;-92
2022/10/30 04:07:46;;;;;;;;;13.00;10.50;;;;;15.71;71.94;100814.25;5099268;27;46103;-92
2022/10/30 04:10:13;;;;;;;;;12.50;12.00;;;;;14.69;71.79;100652.91;5121162;27;45334;-92
2022/10/30 04:12:39;;;;;;;;;10.25;10.00;;;;;13.43;71.98;100423.44;5108567;27;45776;-92
2022/10/30 04:15:07;;;;;;;;;12.50;10.00;;;;;15.61;71.69;100808.41;5121594;27;44881;-91
2022/10/30 04:17:33;;;;;;;;;13.75;13.00;;;;;15.13;71.95;100720.53;5109702;27;46771;-91
2022/10/30 04:19:58;;;;;;;;;14.00;11.75;;;;;14.14;71.68;100572.41;5107186;27;45328;-92
2022/10/30 04:22:24;;;;;;;;;11.25;11.25;;;;;14.59;72.29;100630.19;5102884;27;45395;-92
2022/10/30 04:24:50;;;;;;;;;14.00;12.00;;;;;14.44;71.60;100609.44;5110926;27;45348;-91
2022/10/30 04:27:16;;;;;;;;;14.50;11.25;;;;;14.13;72.31;100565.34;5118755;27;46835;-93
2022/10/30 04:29:41;;;;;;;;;11.75;11.75;;;;;14.56;71.87;100624.97;5120702;27;45204;-92
2022/10/30 04:32:14;;;;;;;;;12.50;12.25;;;;;13.56;71.63;100472.53;5101571;27;45196;-93
2022/10/30 04:34:39;;;;;;;;;14.00;11.00;;;;;14.75;72.10;100657.13;5101496;27;45342;-92
2022/10/30 04:37:05;;;;;;;;;14.75;9.75;;;;;13.05;71.92;100372.47;5117258;27;47933;-92
2022/10/30 04:39:31;;;;;;;;;18.75;14.75;;;;;14.47;72.14;100634.16;5116791;27;45454;-92
2022/10/30 04:41:57;;;;;;;;;14.75;14.75;;;;;15.45;72.10;100802.75;5116632;27;45261;-92
2022/10/30 04:44:22;;;;;;;;;16.50;12.00;;;;;13.87;72.19;100551.16;5099344;27;45313;-93
2022/10/30 04:46:47;;;;;;;;;12.25;10.00;;;;;14.21;72.25;100596.06;5099766;27;46404;-93
2022/10/30 04:49:13;;;;;;;;;14.00;12.50;;;;;14.24;72.68;100592.41;5117806;27;45317;-92
2022/10/30 04:51:38;;;;;;;;;15.25;13.25;;;;;14.44;72.61;100630.72;5101414;27;45270;-92
2022/10/30 04:54:04;;;;;;;;;11.75;10.75;;;;;13.24;72.43;100439.94;5107112;27;45531;-91
2022/10/30 04:56:31;;;;;;;;;11.75;11.25;;;;;14.74;72.70;100709.50;5116664;27;45747;-91
2022/10/30 04:58:57;;;;;;;;;13.00;10.00;;;;;14.16;72.58;100599.78;5132497;27;44916;-91
2022/10/30 05:01:22;;;;;;;;;11.75;10.75;;;;;14.03;72.83;100597.56;5125616;27;44771;-91
2022/10/30 05:03:48;;;;;;;;;13.75;11.50;;;;;14.69;72.60;100694.59;5101033;27;45336;-92
2022/10/30 05:06:20;;;;;;;;;10.75;10.75;;;;;15.18;72.97;100778.00;5100852;27;46934;-92
2022/10/30 05:08:46;;;;;;;;;13.00;12.00;;;;;14.14;72.70;100602.50;5104883;27;45274;-91
2022/10/30 05:11:12;;;;;;;;;11.00;10.25;;;;;14.73;72.37;100709.53;5106082;27;45535;-93
2022/10/30 05:13:37;;;;;;;;;10.00;10.00;;;;;15.21;72.94;100803.66;5118923;27;45415;-92
2022/10/30 05:16:03;;;;;;;;;11.25;11.25;;;;;14.82;72.53;100725.19;5099066;27;46730;-91
2022/10/30 05:18:28;;;;;;;;;14.75;10.50;;;;;14.82;72.83;100718.97;5117015;27;45267;-92
2022/10/30 05:20:53;;;;;;;;;5.75;5.50;;;;;14.33;72.91;100650.59;5118211;27;45435;-90
2022/10/30 05:23:19;;;;;;;;;11.25;11.00;;;;;13.77;72.67;100555.94;5099283;27;45295;-90
2022/10/30 05:25:44;;;;;;;;;12.25;12.25;;;;;14.14;73.07;100622.91;5115975;27;48319;-90
2022/10/30 05:28:10;;;;;;;;;12.75;12.75;;;;;14.28;72.65;100657.84;5114423;27;45629;-91
2022/10/30 05:30:35;;;;;;;;;10.75;10.75;;;;;15.10;72.88;100780.06;5098068;27;45212;-90
2022/10/30 05:33:05;;;;;;;;;12.00;10.50;;;;;14.77;72.93;100718.28;5097886;27;45575;-91
2022/10/30 05:35:33;;;;;;;;;11.00;10.00;;;;;13.90;72.83;100567.00;5098671;27;47903;-92
2022/10/30 05:38:00;;;;;;;;;11.25;11.25;;;;;14.28;72.63;100625.94;5097871;27;45451;-91
2022/10/30 05:40:25;;;;;;;;;13.75;12.50;;;;;14.47;73.01;100684.69;5097760;27;45328;-90
2022/10/30 05:42:52;;;;;;;;;10.00;10.00;;;;;14.24;72.88;100647.38;5097538;27;45514;-90
2022/10/30 05:45:17;;;;;;;;;14.00;13.00;;;;;13.86;72.99;100595.47;5116943;27;48301;-91
2022/10/30 05:47:43;;;;;;;;;11.00;10.25;;;;;13.96;72.99;100624.38;5100046;27;46213;-90
2022/10/30 05:50:11;;;;;;;;;15.00;12.75;;;;;14.96;73.22;100787.69;5097439;27;45265;-90
2022/10/30 05:52:36;;;;;;;;;11.00;11.00;;;;;13.98;73.18;100627.84;5100088;27;45493;-91
2022/10/30 05:55:02;;;;;;;;;13.00;10.50;;;;;13.79;73.36;100582.44;5082868;27;48271;-90
2022/10/30 05:57:28;;;;;;;;;9.50;9.50;;;;;13.82;73.28;100585.84;5076732;28;45404;-90
2022/10/30 05:59:54;;;;;;;;;9.75;9.75;;;;;14.06;73.22;100640.88;5084598;28;45524;-90
2022/10/30 06:02:19;;;;;;;;;13.00;11.25;;;;;14.65;73.14;100736.41;5086472;27;45390;-90
2022/10/30 06:04:45;;;;;;;;;9.50;9.25;;;;;14.29;73.16;100680.00;5088981;28;47187;-90
2022/10/30 06:07:10;;;;;;;;;13.50;10.00;;;;;13.84;73.13;100594.63;5078413;27;45279;-90
2022/10/30 06:09:36;;;;;;;;;11.75;10.75;;;;;14.18;73.22;100664.38;5077079;28;45604;-91
2022/10/30 06:12:01;;;;;;;;;12.00;10.50;;;;;12.80;73.08;100444.91;5080311;27;45548;-90
2022/10/30 06:14:27;;;;;;;;;11.25;11.25;;;;;14.30;73.25;100689.69;5097337;27;46139;-91
2022/10/30 06:16:53;;;;;;;;;12.25;10.50;;;;;13.89;73.38;100615.72;5100646;27;45438;-90
2022/10/30 06:19:18;;;;;;;;;12.25;11.25;;;;;13.64;73.43;100587.31;5102082;27;45333;-89
2022/10/30 06:21:44;;;;;;;;;9.00;8.00;;;;;14.25;73.30;100683.66;5083664;27;45533;-90
2022/10/30 06:24:09;;;;;;;;;16.00;12.25;;;;;13.62;73.43;100580.31;5118612;27;47572;-90
2022/10/30 06:26:34;;;;;;;;;12.25;12.00;;;;;14.22;73.68;100696.13;5100504;27;45356;-90
2022/10/30 06:29:00;;;;;;;;;10.75;8.50;;;;;14.74;73.70;100778.66;5101606;27;45618;-90
2022/10/30 06:31:25;;;;;;;;;12.75;12.75;;;;;13.94;73.70;100651.00;5120019;27;45368;-90
2022/10/30 06:33:51;;;;;;;;;14.75;12.50;;;;;14.15;73.25;100677.78;5100653;27;47020;-90
2022/10/30 06:36:17;;;;;;;;;11.00;11.00;;;;;14.15;73.44;100688.41;5103298;27;45571;-90
2022/10/30 06:38:42;;;;;;;;;12.50;11.75;;;;;13.83;73.71;100632.75;5111078;27;45415;-91
2022/10/30 06:41:08;;;;;;;;;10.75;9.50;;;;;13.56;73.41;100588.47;5113786;27;45548;-90
2022/10/30 06:43:34;;;;;;;;;9.75;9.75;;;;;14.38;73.54;100730.19;5111164;27;47193;-90
2022/10/30 06:45:59;;;;;;;;;11.50;11.25;;;;;14.57;73.42;100765.00;5124225;27;45341;-89
2022/10/30 06:48:25;;;;;;;;;10.50;8.00;;;;;13.95;73.81;100676.66;5104970;27;45371;-93
2022/10/30 06:50:58;;;;;;;;;15.25;12.00;;;;;14.11;73.28;100702.75;5102490;27;45357;-91
2022/10/30 06:53:24;;;;;;;;;12.25;11.25;;;;;13.75;73.67;100640.09;5117065;27;47124;-90
2022/10/30 06:55:56;;;;;;;;;14.75;11.50;;;;;14.01;73.81;100686.22;5116266;27;45363;-91
2022/10/30 06:58:22;;;;;;;;;10.75;10.75;;;;;13.85;73.62;100660.13;5105401;27;45554;-91
2022/10/30 07:00:47;;;;;;;;;11.50;10.00;;;;;14.15;73.56;100715.00;5109676;27;45346;-91
2022/10/30 07:03:13;;;;;;;;;14.25;13.50;;;;;14.10;73.76;100703.66;5103751;27;46905;-91
2022/10/30 07:05:38;;;;;;;;;9.50;9.50;;;;;14.03;73.62;100693.22;5116465;27;45827;-91
2022/10/30 07:08:04;;;;;;;;;10.00;10.00;;;;;14.01;73.39;100662.28;5102701;27;45409;-90
2022/10/30 07:10:29;;;;;;;;;13.00;13.00;;;;;13.90;73.80;100636.06;5118111;27;45245;-91
2022/10/30 07:12:55;;;;;;;;;10.50;10.50;;;;;14.37;73.87;100712.50;5105453;27;46818;-90
2022/10/30 07:15:24;;;;;;;;;13.00;11.75;;;;;14.32;73.88;100702.03;5108994;27;45264;-89
2022/10/30 07:17:57;;;;;;;;;14.25;12.00;;;;;14.86;73.78;100784.47;5107793;27;45288;-89
2022/10/30 07:20:26;;;;;;;;;17.00;13.00;;;;;14.26;73.63;100696.91;5101651;27;45320;-90
2022/10/30 07:22:54;;;;;;;;;12.50;10.50;;;;;14.24;73.63;100677.47;5118487;27;46883;-90
2022/10/30 07:25:34;;;;;;;;;12.25;10.25;;;;;12.90;73.58;100443.66;5118469;27;45522;-91
2022/10/30 07:28:00;;;;;;;;;10.75;10.25;;;;;14.40;73.53;100678.69;5119111;27;45288;-91
2022/10/30 07:30:26;;;;;;;;;13.25;11.75;;;;;14.07;73.88;100614.25;5100685;27;45685;-91
2022/10/30 07:32:56;;;;;;;;;13.50;12.00;;;;;13.53;73.88;100531.06;5119517;27;48166;-91
2022/10/30 07:35:22;;;;;;;;;8.25;8.25;;;;;14.08;73.17;100621.31;5119958;27;45423;-91
2022/10/30 07:37:47;;;;;;;;;12.25;10.75;;;;;15.17;73.51;100799.34;5121486;27;45489;-91
2022/10/30 07:40:13;;;;;;;;;13.75;12.75;;;;;15.00;73.71;100771.56;5100196;27;45526;-92
2022/10/30 07:42:38;;;;;;;;;14.75;12.50;;;;;14.92;73.50;100745.22;5119870;27;46041;-91
2022/10/30 07:45:04;;;;;;;;;13.75;11.25;;;;;13.82;73.28;100543.34;5105337;27;45638;-91
2022/10/30 07:47:29;;;;;;;;;13.00;13.00;;;;;15.17;73.22;100749.66;5109629;27;45266;-92
2022/10/30 07:49:55;;;;;;;;;15.25;13.00;;;;;14.72;73.31;100657.25;5103284;27;45350;-90
2022/10/30 07:52:20;;;;;;;;;11.75;9.50;;;;;15.55;73.40;100802.44;5121952;27;48305;-90
2022/10/30 07:54:46;;;;;;;;;12.25;11.25;;;;;15.05;73.28;100699.53;5111274;27;45302;-91
2022/10/30 07:57:11;;;;;;;;;14.00;12.25;;;;;15.43;73.04;100764.66;5129094;27;45389;-92
2022/10/30 07:59:36;;;;;;;;;14.00;12.75;;;;;15.30;73.55;100726.09;5121596;27;45486;-91
2022/10/30 08:02:02;;;;;;;;;12.75;11.00;;;;;15.06;73.23;100661.31;5103688;27;48273;-91
2022/10/30 08:04:27;;;;;;;;;14.50;12.00;;;;;15.25;73.22;100690.81;5120537;27;45521;-92
2022/10/30 08:06:52;;;;;;;;;14.75;10.75;;;;;15.40;73.00;100714.19;5122089;27;45554;-92
2022/10/30 08:09:18;;;;;;;;;13.75;11.50;;;;;14.88;72.82;100620.31;5104002;27;45448;-91
2022/10/30 08:11:43;;;;;;;;;8.25;8.25;;;;;15.42;72.67;100700.81;5121696;27;46138;-90
2022/10/30 08:14:09;;;;;;;;;6.25;6.25;;;;;15.57;72.75;100734.00;5103583;27;45500;-91
2022/10/30 08:16:34;;;;;;;;;9.50;9.50;;;;;14.96;72.33;100618.22;5111936;27;45499;-89
2022/10/30 08:19:00;;;;;;;;;14.75;13.00;;;;;16.01;72.32;100795.38;5106027;27;45230;-91
2022/10/30 08:21:28;;;;;;;;;15.50;13.00;;;;;16.27;72.14;100849.47;5102633;27;47708;-91
2022/10/30 08:23:53;;;;;;;;;13.25;12.50;;;;;15.77;71.57;100749.19;5103183;27;45483;-93
2022/10/30 08:26:19;;;;;;;;;14.00;11.00;;;;;15.42;72.27;100708.81;5106352;27;44744;-92
2022/10/30 08:28:44;;;;;;;;;13.00;9.50;;;;;15.71;72.07;100726.31;5106178;27;45643;-92
2022/10/30 08:31:10;;;;;;;;;15.00;12.50;;;;;15.88;71.83;100767.47;5105238;27;46918;-92
2022/10/30 08:33:38;;;;;;;;;10.75;10.75;;;;;16.05;71.63;100780.13;5105497;27;46234;-92
2022/10/30 08:36:06;;;;;;;;;10.50;9.50;;;;;16.59;71.83;100884.69;5104321;27;45333;-92
2022/10/30 08:38:31;;;;;;;;;10.00;9.00;;;;;16.69;71.33;100873.56;5103020;27;45594;-93
2022/10/30 08:40:57;;;;;;;;;12.00;10.00;;;;;15.44;71.21;100633.25;5104290;27;45766;-93
2022/10/30 08:43:24;;;;;;;;;14.75;12.50;;;;;15.44;71.30;100621.72;5121616;27;45186;-92
2022/10/30 08:45:49;;;;;;;;;9.00;9.00;;;;;16.64;70.96;100818.63;5123665;27;45269;-93
2022/10/30 08:48:15;;;;;;;;;15.50;14.00;;;;;16.23;70.73;100778.53;5096515;27;45562;-91
2022/10/30 08:50:41;;;;;;;;;12.50;11.25;;;;;16.42;71.21;100805.34;5092674;27;46089;-93
2022/10/30 08:53:09;;;;;;;;;11.00;10.00;;;;;15.16;71.11;100592.66;5088763;27;45286;-92
2022/10/30 08:55:36;;;;;;;;;12.00;12.00;;;;;16.17;71.58;100761.84;5122850;27;45330;-91
2022/10/30 08:58:02;;;;;;;;;10.50;9.25;;;;;16.16;71.13;100776.09;5103503;27;45446;-92
2022/10/30 09:00:28;;;;;;;;;14.25;12.00;;;;;15.61;70.56;100655.69;5104164;27;48116;-93
2022/10/30 09:02:53;;;;;;;;;10.75;10.25;;;;;15.07;70.37;100572.56;5105419;27;45986;-92
2022/10/30 09:05:19;;;;;;;;;10.75;10.75;;;;;15.29;70.28;100607.22;5107014;27;45208;-92
2022/10/30 09:07:45;;;;;;;;;13.75;13.75;;;;;16.22;70.21;100760.81;5105477;27;45663;-91
2022/10/30 09:10:13;;;;;;;;;12.00;12.00;;;;;14.12;70.20;100390.84;5104801;27;47140;-93
2022/10/30 09:12:42;;;;;;;;;12.25;11.00;;;;;15.73;70.69;100664.97;5123664;27;45466;-93
2022/10/30 09:15:07;;;;;;;;;10.50;10.50;;;;;14.46;70.60;100461.38;5106085;27;45207;-92
2022/10/30 09:17:33;;;;;;;;;13.00;10.75;;;;;16.09;70.24;100713.28;5103609;27;45286;-93
2022/10/30 09:19:58;;;;;;;;;11.00;10.25;;;;;15.09;70.26;100534.34;5104771;27;48121;-92
2022/10/30 09:22:26;;;;;;;;;12.00;11.25;;;;;15.83;70.09;100663.72;5104368;27;45312;-93
2022/10/30 09:24:52;;;;;;;;;10.75;9.25;;;;;16.44;70.33;100735.00;5106576;27;45298;-91
2022/10/30 09:27:19;;;;;;;;;14.75;12.25;;;;;16.56;69.96;100716.72;5106401;27;45314;-93
2022/10/30 09:29:44;;;;;;;;;8.50;8.50;;;;;16.10;70.14;100604.88;5108079;27;46143;-91
2022/10/30 09:32:10;;;;;;;;;10.75;8.00;;;;;17.30;70.28;100775.78;5136358;27;44906;-92
2022/10/30 09:34:37;;;;;;;;;10.50;10.50;;;;;17.17;69.42;100715.84;5098304;27;45311;-92
2022/10/30 09:37:07;;;;;;;;;10.25;8.25;;;;;17.42;70.05;100734.31;5114836;27;45594;-92
2022/10/30 09:39:32;;;;;;;;;10.00;9.25;;;;;18.45;69.61;100873.00;5117216;27;47188;-92
2022/10/30 09:49:02;;;;;;;;;9.00;9.00;;;;;19.21;68.84;100870.16;5129280;27;44705;-93
2022/10/30 09:55:28;;;;;;;;;8.00;8.00;;;;;19.86;68.31;100874.84;5133300;27;45297;-93
2022/10/30 10:01:18;;;;;;;;;5.75;5.75;;;;;20.28;67.93;100867.19;5124789;27;45244;-93
2022/10/30 10:04:05;;;;;;;;;8.50;7.50;;;;;19.58;67.51;100741.38;5107195;27;45741;-92
2022/10/30 10:06:33;;;;;;;;;9.25;8.75;;;;;18.81;67.66;100593.69;5108290;27;45324;-92
2022/10/30 10:09:05;;;;;;;;;9.00;8.75;;;;;18.79;67.57;100593.78;5108914;27;45189;-93
2022/10/30 10:11:44;;;;;;;;;8.00;8.00;;;;;19.56;67.26;100698.59;5126624;27;45305;-94
2022/10/30 10:14:17;;;;;;;;;7.25;6.50;;;;;19.65;67.16;100715.97;5122355;27;47084;-93
2022/10/30 10:16:50;;;;;;;;;12.00;8.50;;;;;20.67;66.41;100880.19;5138569;27;44632;-93
2022/10/30 10:19:31;;;;;;;;;7.25;6.00;;;;;19.09;67.01;100621.69;5111625;27;45420;-91
2022/10/30 10:21:59;;;;;;;;;9.00;6.75;;;;;18.04;67.33;100445.31;5101497;27;45270;-91
2022/10/30 10:24:31;;;;;;;;;10.75;9.75;;;;;20.41;66.94;100836.88;5100999;27;46205;-91
2022/10/30 10:27:16;;;;;;;;;6.00;6.00;;;;;20.31;66.98;100830.28;5105727;27;44858;-90
2022/10/30 10:30:03;;;;;;;;;5.75;5.25;;;;;20.11;67.01;100784.97;5113008;27;44745;-92
2022/10/30 10:32:44;;;;;;;;;7.50;7.00;;;;;20.57;67.21;100868.22;5112860;27;44897;-90
2022/10/30 10:35:43;;;;;;;;;5.75;5.75;;;;;20.56;67.23;100866.50;5106479;27;46182;-91
2022/10/30 10:38:15;;;;;;;;;9.25;7.00;;;;;20.55;67.31;100859.38;5104294;27;45702;-91
2022/10/30 10:40:57;;;;;;;;;7.25;6.50;;;;;20.52;67.26;100859.56;5102713;27;45441;-91
2022/10/30 10:43:50;;;;;;;;;5.75;5.75;;;;;20.49;67.41;100876.69;5108348;27;45485;-91
2022/10/30 10:46:16;;;;;;;;;4.25;4.00;;;;;20.50;66.87;100893.69;5101887;27;47106;-91
2022/10/30 10:48:54;;;;;;;;;9.50;8.75;;;;;19.53;67.07;100765.75;5101389;27;45356;-90
2022/10/30 10:51:26;;;;;;;;;7.25;7.00;;;;;19.77;67.14;100787.72;5103111;27;45334;-91
2022/10/30 10:54:15;;;;;;;;;7.00;6.00;;;;;20.14;67.16;100843.81;5104631;27;45449;-92
2022/10/30 10:56:45;;;;;;;;;8.75;6.75;;;;;19.33;66.60;100708.75;5101825;27;47333;-91
2022/10/30 10:59:22;;;;;;;;;7.50;7.25;;;;;20.17;67.05;100827.53;5101781;27;45803;-91
2022/10/30 11:02:00;;;;;;;;;7.00;6.25;;;;;18.47;66.74;100547.34;5105389;27;45334;-90
2022/10/30 11:04:45;;;;;;;;;8.25;7.00;;;;;20.71;66.98;100939.94;5107364;27;45468;-90
2022/10/30 11:07:24;;;;;;;;;7.75;6.25;;;;;20.77;66.47;100910.94;5104652;27;47324;-92
2022/10/30 11:09:56;;;;;;;;;8.75;7.75;;;;;19.90;66.59;100771.78;5101229;27;45517;-91
2022/10/30 11:12:27;;;;;;;;;6.00;6.00;;;;;20.27;66.70;100801.03;5104874;27;45425;-91
2022/10/30 11:14:54;;;;;;;;;9.75;7.25;;;;;20.41;66.18;100822.59;5102623;27;45375;-91
2022/10/30 11:17:37;;;;;;;;;6.00;5.25;;;;;19.89;66.28;100705.72;5101133;27;48149;-91
2022/10/30 11:20:20;;;;;;;;;7.00;7.00;;;;;19.02;66.01;100534.59;5107024;27;45901;-92
2022/10/30 11:22:50;;;;;;;;;6.00;5.50;;;;;20.44;65.66;100733.84;5108185;27;45489;-90
2022/10/30 11:25:21;;;;;;;;;10.00;8.50;;;;;19.71;65.42;100569.03;5105492;27;45517;-91
2022/10/30 11:27:52;;;;;;;;;10.75;8.00;;;;;21.49;65.69;100832.34;5103501;27;47390;-92
2022/10/30 11:30:27;;;;;;;;;9.00;7.50;;;;;21.75;65.35;100844.19;5103975;27;45383;-91
2022/10/30 11:32:58;;;;;;;;;7.75;7.00;;;;;22.07;64.67;100853.91;5108056;27;45503;-91
2022/10/30 11:35:24;;;;;;;;;4.50;4.50;;;;;21.95;64.74;100799.88;5091660;27;45330;-91
2022/10/30 11:38:10;;;;;;;;;8.00;6.00;;;;;22.64;64.45;100866.41;5104323;27;45482;-92